Terminal Aerodrome Forecast
Issued by NWS

Home | Current Version | Previous Version | Text Only | Print | Product List | Glossary On
Versions: 1 2 3 4 5 6 7 8 9 10 11 12 13 14 15 16 17 18 19 20 21
000
FTUS43 KLSX 191200 AAA
TAFCPS
TAF AMD
KCPS 191233Z 1913/2012 VRB03KT 3SM BR SKC
      TEMPO 1913/1914 1SM BR
     FM191500 VRB03KT 6SM BR SKC
     FM191600 19005KT P6SM SCT120
     FM201100 23006KT P6SM BKN050=

USA.gov is the U.S. government's official web portal to all federal, state and local government web resources and services.